Home

PKWA Terminal Aerodrome Forecast (TAF)small logo


TAF provided by NWS Guam
2014/10/20 18:25
TAF PKWA 201720Z 2018/2118 09011KT P6SM VCSH SCT018 SCT040 
      TEMPO 2018/2021 12011G21KT 5SM SHRA SCT017 BKN030

      



Site Map | Contact Us | Copyright © 2007 Atmospheric Technology Services Company. All rights reserved.